createdAt,value
2023-01-30T00:00:13.137Z,22.50
2023-01-30T00:02:41.627Z,22.60
2023-01-30T00:05:10.132Z,22.50
2023-01-30T00:07:38.354Z,22.40
2023-01-30T00:10:06.894Z,22.50
2023-01-30T00:12:35.030Z,22.40
2023-01-30T00:15:03.484Z,22.40
2023-01-30T00:17:31.819Z,22.40
2023-01-30T00:19:59.911Z,22.30
2023-01-30T00:22:28.275Z,22.30
2023-01-30T00:24:56.586Z,22.30
2023-01-30T00:27:24.873Z,22.30
2023-01-30T00:30:02.508Z,22.20
2023-01-30T00:35:21.995Z,22.20
2023-01-30T00:37:50.206Z,22.20
2023-01-30T00:40:18.877Z,22.20
2023-01-30T00:42:47.064Z,22.30
2023-01-30T00:45:15.365Z,22.50
2023-01-30T00:47:44.206Z,22.60
2023-01-30T00:50:12.569Z,22.80
2023-01-30T00:52:40.790Z,22.90
2023-01-30T00:55:09.608Z,23.00
2023-01-30T00:57:37.794Z,23.10
2023-01-30T01:00:06.709Z,23.20
2023-01-30T01:02:35.517Z,23.30
2023-01-30T01:05:04.068Z,23.40
2023-01-30T01:07:32.286Z,23.40
2023-01-30T01:10:00.532Z,23.20
2023-01-30T01:12:28.749Z,23.00
2023-01-30T01:14:56.901Z,22.80
2023-01-30T01:17:25.339Z,22.70
2023-01-30T01:19:53.572Z,22.60
2023-01-30T01:22:21.878Z,22.60
2023-01-30T01:24:49.948Z,22.50
2023-01-30T01:27:18.148Z,22.50
2023-01-30T01:29:46.440Z,22.40
2023-01-30T01:32:14.575Z,22.40
2023-01-30T01:34:42.940Z,22.30
2023-01-30T01:37:13.522Z,22.40
2023-01-30T01:39:43.485Z,22.50
2023-01-30T01:42:13.850Z,22.80
2023-01-30T01:45:22.844Z,22.90
2023-01-30T01:48:02.197Z,23.00
2023-01-30T01:50:54.112Z,23.10
2023-01-30T01:53:27.451Z,23.20
2023-01-30T01:55:59.252Z,23.30
2023-01-30T01:58:40.102Z,23.40
2023-01-30T02:01:08.610Z,23.50
2023-01-30T02:03:41.896Z,23.30
2023-01-30T02:06:12.534Z,23.00
2023-01-30T02:09:06.205Z,22.80
2023-01-30T02:11:51.594Z,22.70
2023-01-30T02:14:21.382Z,22.60
2023-01-30T02:16:51.365Z,22.50
2023-01-30T02:19:33.718Z,22.50
2023-01-30T02:22:46.474Z,22.50
2023-01-30T02:25:36.431Z,22.40
2023-01-30T02:28:41.754Z,22.40
2023-01-30T02:31:25.485Z,22.30
2023-01-30T02:34:16.222Z,22.20
2023-01-30T02:37:13.428Z,22.50
2023-01-30T02:40:06.116Z,22.70
2023-01-30T02:42:49.705Z,22.90
2023-01-30T02:45:27.171Z,23.00
2023-01-30T02:48:04.685Z,23.10
2023-01-30T02:51:01.114Z,23.20
2023-01-30T02:53:36.605Z,23.30
2023-01-30T02:56:06.789Z,23.40
2023-01-30T02:58:45.375Z,23.50
2023-01-30T03:01:13.434Z,23.30
2023-01-30T03:03:58.270Z,23.10
2023-01-30T03:06:32.801Z,22.90
2023-01-30T03:09:19.398Z,22.70
2023-01-30T03:12:09.270Z,22.60
2023-01-30T03:14:56.222Z,22.60
2023-01-30T03:17:27.374Z,22.50
2023-01-30T03:19:56.440Z,22.50
2023-01-30T03:22:24.340Z,22.40
2023-01-30T03:24:55.010Z,22.40
2023-01-30T03:27:24.330Z,22.30
2023-01-30T03:29:52.511Z,22.30
2023-01-30T03:32:21.710Z,22.30
2023-01-30T03:34:51.025Z,22.40
2023-01-30T03:37:19.364Z,22.60
2023-01-30T03:39:47.793Z,22.70
2023-01-30T03:42:16.502Z,22.90
2023-01-30T03:44:47.326Z,23.00
2023-01-30T03:47:15.936Z,23.10
2023-01-30T03:49:44.612Z,23.20
2023-01-30T03:52:12.869Z,23.20
2023-01-30T03:54:41.051Z,23.30
2023-01-30T03:57:09.618Z,23.40
2023-01-30T03:59:38.081Z,23.50
2023-01-30T04:02:10.262Z,23.30
2023-01-30T04:04:38.630Z,23.10
2023-01-30T04:07:09.839Z,22.90
2023-01-30T04:09:40.061Z,22.70
2023-01-30T04:12:08.752Z,22.60
2023-01-30T04:14:43.743Z,22.60
2023-01-30T04:17:26.544Z,22.50
2023-01-30T04:20:20.620Z,22.40
2023-01-30T04:22:55.092Z,22.40
2023-01-30T04:25:24.081Z,22.40
2023-01-30T04:27:52.363Z,22.60
2023-01-30T04:30:25.474Z,22.80
2023-01-30T04:33:02.842Z,22.90
2023-01-30T04:35:31.349Z,22.90
2023-01-30T04:37:59.483Z,23.10
2023-01-30T04:40:28.735Z,23.10
2023-01-30T04:42:57.342Z,23.20
2023-01-30T04:45:45.266Z,23.30
2023-01-30T04:48:14.160Z,23.40
2023-01-30T04:50:45.379Z,23.40
2023-01-30T04:53:14.114Z,23.10
2023-01-30T04:55:41.993Z,22.90
2023-01-30T04:58:10.530Z,22.80
2023-01-30T05:00:39.335Z,22.70
2023-01-30T05:03:07.626Z,22.60
2023-01-30T05:05:35.801Z,22.60
2023-01-30T05:08:04.427Z,22.50
2023-01-30T05:10:32.671Z,22.50
2023-01-30T05:13:07.169Z,22.40
2023-01-30T05:15:35.800Z,22.30
2023-01-30T05:18:04.065Z,22.30
2023-01-30T05:20:32.157Z,22.30
2023-01-30T05:23:00.465Z,22.40
2023-01-30T05:25:31.224Z,22.50
2023-01-30T05:27:59.618Z,22.70
2023-01-30T05:30:27.752Z,22.80
2023-01-30T05:32:58.131Z,22.90
2023-01-30T05:35:26.318Z,22.90
2023-01-30T05:37:54.427Z,23.10
2023-01-30T05:40:22.717Z,23.20
2023-01-30T05:42:50.861Z,23.20
2023-01-30T05:45:19.329Z,23.40
2023-01-30T05:47:52.677Z,23.50
2023-01-30T05:50:21.939Z,23.40
2023-01-30T05:52:50.151Z,23.20
2023-01-30T05:55:18.729Z,22.90
2023-01-30T05:57:47.138Z,22.70
2023-01-30T06:00:15.871Z,22.60
2023-01-30T06:02:44.158Z,22.50
2023-01-30T06:05:12.487Z,22.50
2023-01-30T06:07:40.558Z,22.40
2023-01-30T06:10:09.326Z,22.60
2023-01-30T06:12:37.704Z,22.70
2023-01-30T06:15:07.077Z,22.80
2023-01-30T06:17:35.337Z,22.90
2023-01-30T06:20:03.869Z,23.00
2023-01-30T06:22:32.117Z,23.10
2023-01-30T06:25:00.314Z,23.20
2023-01-30T06:27:28.549Z,23.30
2023-01-30T06:29:56.744Z,23.40
2023-01-30T06:32:25.093Z,23.50
2023-01-30T06:34:53.241Z,23.30
2023-01-30T06:37:21.461Z,23.10
2023-01-30T06:39:49.706Z,22.90
2023-01-30T06:42:17.884Z,22.70
2023-01-30T06:44:46.004Z,22.60
2023-01-30T06:47:14.269Z,22.50
2023-01-30T06:49:42.438Z,22.60
2023-01-30T06:52:11.074Z,22.80
2023-01-30T06:54:39.264Z,22.90
2023-01-30T06:57:07.568Z,23.00
2023-01-30T06:59:35.983Z,23.10
2023-01-30T07:02:04.268Z,23.20
2023-01-30T07:04:32.671Z,23.20
2023-01-30T07:07:00.921Z,23.30
2023-01-30T07:09:29.056Z,23.40
2023-01-30T07:11:57.482Z,23.50
2023-01-30T07:14:25.573Z,23.40
2023-01-30T07:16:53.958Z,23.20
2023-01-30T07:19:22.224Z,22.90
2023-01-30T07:21:50.534Z,22.80
2023-01-30T07:24:18.896Z,22.70
2023-01-30T07:26:55.923Z,22.60
2023-01-30T07:29:24.177Z,22.50
2023-01-30T07:31:53.013Z,22.50
2023-01-30T07:34:21.321Z,22.60
2023-01-30T07:36:49.611Z,22.80
2023-01-30T07:39:17.750Z,22.90
2023-01-30T07:41:46.083Z,23.00
2023-01-30T07:44:14.578Z,23.10
2023-01-30T07:46:42.739Z,23.20
2023-01-30T07:49:11.801Z,23.30
2023-01-30T07:51:40.024Z,23.30
2023-01-30T07:54:08.188Z,23.40
2023-01-30T07:56:36.566Z,23.50
2023-01-30T07:59:04.887Z,23.50
2023-01-30T08:01:33.779Z,23.30
2023-01-30T08:04:01.597Z,23.10
2023-01-30T08:06:29.815Z,22.90
2023-01-30T08:08:58.130Z,22.70
2023-01-30T08:11:26.530Z,22.70
2023-01-30T08:13:54.975Z,22.60
2023-01-30T08:16:23.396Z,22.50
2023-01-30T08:18:51.645Z,22.50
2023-01-30T08:21:19.890Z,22.40
2023-01-30T08:23:48.210Z,22.40
2023-01-30T08:26:16.554Z,22.50
2023-01-30T08:28:44.832Z,22.70
2023-01-30T08:31:14.867Z,22.80
2023-01-30T08:33:43.280Z,22.90
2023-01-30T08:36:11.795Z,23.10
2023-01-30T08:38:39.774Z,23.20
2023-01-30T08:41:12.514Z,23.30
2023-01-30T08:43:43.055Z,23.30
2023-01-30T08:46:17.534Z,23.40
2023-01-30T08:48:50.493Z,23.50
2023-01-30T08:51:18.974Z,23.40
2023-01-30T08:53:47.260Z,23.20
2023-01-30T08:56:15.459Z,23.00
2023-01-30T08:58:43.788Z,22.80
2023-01-30T09:01:11.995Z,22.80
2023-01-30T09:03:40.402Z,22.70
2023-01-30T09:06:09.049Z,22.60
2023-01-30T09:08:37.323Z,22.60
2023-01-30T09:11:06.671Z,22.50
2023-01-30T09:13:36.099Z,22.50
2023-01-30T09:16:06.630Z,22.70
2023-01-30T09:18:34.923Z,22.80
2023-01-30T09:21:06.649Z,22.90
2023-01-30T09:23:35.171Z,23.00
2023-01-30T09:26:04.463Z,23.20
2023-01-30T09:28:33.230Z,23.20
2023-01-30T09:31:04.396Z,23.30
2023-01-30T09:33:33.103Z,23.40
2023-01-30T09:36:01.457Z,23.50
2023-01-30T09:38:29.731Z,23.50
2023-01-30T09:41:01.074Z,23.30
2023-01-30T09:43:44.841Z,23.20
2023-01-30T09:46:22.086Z,22.90
2023-01-30T09:49:15.061Z,22.80
2023-01-30T09:52:14.293Z,22.70
2023-01-30T09:54:44.995Z,22.60
2023-01-30T09:57:20.149Z,22.60
2023-01-30T09:59:51.650Z,22.50
2023-01-30T10:02:38.180Z,22.50
2023-01-30T10:05:07.723Z,22.40
2023-01-30T10:07:45.332Z,22.30
2023-01-30T10:10:22.419Z,22.30
2023-01-30T10:13:16.922Z,22.30
2023-01-30T10:15:57.834Z,22.30
2023-01-30T10:18:55.149Z,22.50
2023-01-30T10:21:41.580Z,22.70
2023-01-30T10:24:36.229Z,22.90
2023-01-30T10:27:09.860Z,23.00
2023-01-30T10:29:40.826Z,23.10
2023-01-30T10:32:28.371Z,23.20
2023-01-30T10:35:02.496Z,23.30
2023-01-30T10:37:49.116Z,23.40
2023-01-30T10:40:38.817Z,23.50
2023-01-30T10:43:31.371Z,23.40
2023-01-30T10:46:02.611Z,23.10
2023-01-30T10:48:49.267Z,22.90
2023-01-30T10:51:30.945Z,22.80
2023-01-30T10:54:20.083Z,22.80
2023-01-30T10:56:55.346Z,22.60
2023-01-30T10:59:29.663Z,22.60
2023-01-30T11:02:14.837Z,22.60
2023-01-30T11:04:59.465Z,22.50
2023-01-30T11:07:34.807Z,22.50
2023-01-30T11:10:03.110Z,22.50
2023-01-30T11:12:31.619Z,22.40
2023-01-30T11:15:01.891Z,22.40
2023-01-30T11:17:31.798Z,22.40
2023-01-30T11:20:14.033Z,22.40
2023-01-30T11:23:06.200Z,22.40
2023-01-30T11:25:52.854Z,22.30
2023-01-30T11:28:28.565Z,22.30
2023-01-30T11:31:01.845Z,22.30
2023-01-30T11:33:49.965Z,22.30
2023-01-30T11:36:31.243Z,22.30
2023-01-30T11:39:21.210Z,22.30
2023-01-30T11:41:55.291Z,22.50
2023-01-30T11:44:36.635Z,22.60
2023-01-30T11:47:09.809Z,22.80
2023-01-30T11:49:47.067Z,22.80
2023-01-30T11:52:35.073Z,22.90
2023-01-30T11:55:08.565Z,23.00
2023-01-30T11:57:46.165Z,23.20
2023-01-30T12:00:23.556Z,23.30
2023-01-30T12:02:54.330Z,23.40
2023-01-30T12:05:27.394Z,23.50
2023-01-30T12:08:13.858Z,23.40
2023-01-30T12:10:44.278Z,23.10
2023-01-30T12:13:30.948Z,22.90
2023-01-30T12:16:16.812Z,22.80
2023-01-30T12:19:05.943Z,22.70
2023-01-30T12:22:12.619Z,22.70
2023-01-30T12:24:56.663Z,22.60
2023-01-30T12:27:46.704Z,22.50
2023-01-30T12:33:11.458Z,22.60
2023-01-30T12:36:12.371Z,22.50
2023-01-30T12:39:00.885Z,22.40
2023-01-30T12:41:56.512Z,22.40
2023-01-30T12:44:52.468Z,22.40
2023-01-30T12:47:45.058Z,22.40
2023-01-30T12:50:36.689Z,22.40
2023-01-30T12:53:22.379Z,22.40
2023-01-30T12:56:09.154Z,22.30
2023-01-30T12:58:45.897Z,22.40
2023-01-30T13:01:27.022Z,22.30
2023-01-30T13:04:29.417Z,22.30
2023-01-30T13:07:32.363Z,22.30
2023-01-30T13:10:18.262Z,22.30
2023-01-30T13:13:04.574Z,22.30
2023-01-30T13:15:36.576Z,22.30
2023-01-30T13:18:11.032Z,22.30
2023-01-30T13:21:00.531Z,22.30
2023-01-30T13:23:39.703Z,22.30
2023-01-30T13:26:28.980Z,22.20
2023-01-30T13:29:00.799Z,22.20
2023-01-30T13:31:38.154Z,22.20
2023-01-30T13:34:23.144Z,22.20
2023-01-30T13:37:09.330Z,22.20
2023-01-30T13:39:56.951Z,22.20
2023-01-30T13:42:37.456Z,22.20
2023-01-30T13:45:07.687Z,22.20
2023-01-30T13:47:41.689Z,22.20
2023-01-30T13:50:41.753Z,22.30
2023-01-30T13:53:19.658Z,22.60
2023-01-30T13:56:32.969Z,22.80
2023-01-30T13:59:13.938Z,23.00
2023-01-30T14:02:00.546Z,23.10
2023-01-30T14:04:40.963Z,23.20
2023-01-30T14:07:26.219Z,23.30
2023-01-30T14:10:10.377Z,23.40
2023-01-30T14:12:43.827Z,23.30
2023-01-30T14:15:16.962Z,23.20
2023-01-30T14:18:06.448Z,23.00
2023-01-30T14:20:47.539Z,22.90
2023-01-30T14:23:23.378Z,22.80
2023-01-30T14:25:53.912Z,22.70
2023-01-30T14:28:22.220Z,22.70
2023-01-30T14:30:51.667Z,22.70
2023-01-30T14:33:23.196Z,22.70
2023-01-30T14:36:04.051Z,22.70
2023-01-30T14:38:34.022Z,22.60
2023-01-30T14:41:02.341Z,22.60
2023-01-30T14:43:56.811Z,22.60
2023-01-30T14:46:25.030Z,22.60
2023-01-30T14:49:14.095Z,22.60
2023-01-30T14:51:48.413Z,22.60
2023-01-30T14:54:16.706Z,22.60
2023-01-30T14:57:06.519Z,22.50
2023-01-30T14:59:36.589Z,22.50
2023-01-30T15:02:14.036Z,22.60
2023-01-30T15:04:54.297Z,22.60
2023-01-30T15:07:28.579Z,22.50
2023-01-30T15:10:06.395Z,22.50
2023-01-30T15:12:45.125Z,22.40
2023-01-30T15:15:31.482Z,22.40
2023-01-30T15:18:20.927Z,22.40
2023-01-30T15:21:07.736Z,22.40
2023-01-30T15:23:59.163Z,22.40
2023-01-30T15:26:39.210Z,22.40
2023-01-30T15:29:35.497Z,22.40
2023-01-30T15:32:20.389Z,22.40
2023-01-30T15:34:52.615Z,22.40
2023-01-30T15:37:36.786Z,22.40
2023-01-30T15:40:33.760Z,22.40
2023-01-30T15:43:01.978Z,22.40
2023-01-30T15:45:49.001Z,22.40
2023-01-30T15:48:50.020Z,22.40
2023-01-30T15:51:26.255Z,22.50
2023-01-30T15:53:57.273Z,22.50
2023-01-30T15:56:29.117Z,22.60
2023-01-30T15:59:00.187Z,22.60
2023-01-30T16:01:28.939Z,22.60
2023-01-30T16:03:56.872Z,22.60
2023-01-30T16:06:34.911Z,22.60
2023-01-30T16:09:19.662Z,22.60
2023-01-30T16:11:48.850Z,22.70
2023-01-30T16:14:22.004Z,22.70
2023-01-30T16:16:50.481Z,22.80
2023-01-30T16:19:26.894Z,22.80
2023-01-30T16:22:02.346Z,22.90
2023-01-30T16:24:33.244Z,22.90
2023-01-30T16:27:06.053Z,22.90
2023-01-30T16:29:46.455Z,22.90
2023-01-30T16:32:15.725Z,22.90
2023-01-30T16:34:44.603Z,22.90
2023-01-30T16:37:24.720Z,22.90
2023-01-30T16:40:15.133Z,22.90
2023-01-30T16:42:58.764Z,22.90
2023-01-30T16:45:35.890Z,22.80
2023-01-30T16:48:19.649Z,22.80
2023-01-30T16:51:00.973Z,22.90
2023-01-30T16:53:31.703Z,22.90
2023-01-30T16:56:03.517Z,22.90
2023-01-30T16:58:37.341Z,23.00
2023-01-30T17:01:08.535Z,22.90
2023-01-30T17:03:41.421Z,22.90
2023-01-30T17:06:27.701Z,22.90
2023-01-30T17:08:57.347Z,22.90
2023-01-30T17:11:39.107Z,22.80
2023-01-30T17:14:27.290Z,22.80
2023-01-30T17:17:12.418Z,22.80
2023-01-30T17:19:40.941Z,22.80
2023-01-30T17:22:18.937Z,22.80
2023-01-30T17:24:47.265Z,22.80
2023-01-30T17:27:17.493Z,22.70
2023-01-30T17:29:46.084Z,22.70
2023-01-30T17:32:16.521Z,22.80
2023-01-30T17:34:45.114Z,22.80
2023-01-30T17:37:22.859Z,22.80
2023-01-30T17:39:51.439Z,22.80
2023-01-30T17:42:19.686Z,22.80
2023-01-30T17:44:48.057Z,22.80
2023-01-30T17:47:16.490Z,22.80
2023-01-30T17:49:44.769Z,22.70
2023-01-30T17:52:14.582Z,22.70
2023-01-30T17:54:43.077Z,22.70
2023-01-30T17:57:13.563Z,22.80
2023-01-30T17:59:41.937Z,22.70
2023-01-30T18:02:13.955Z,22.70
2023-01-30T18:04:42.279Z,22.60
2023-01-30T18:07:15.422Z,22.70
2023-01-30T18:09:44.005Z,22.60
2023-01-30T18:12:12.367Z,22.60
2023-01-30T18:14:40.771Z,22.60
2023-01-30T18:17:10.506Z,22.60
2023-01-30T18:19:38.976Z,22.60
2023-01-30T18:22:07.364Z,22.50
2023-01-30T18:24:35.704Z,22.50
2023-01-30T18:27:04.091Z,22.50
2023-01-30T18:29:32.536Z,22.50
2023-01-30T18:32:00.942Z,22.50
2023-01-30T18:34:29.183Z,22.40
2023-01-30T18:36:57.375Z,22.40
2023-01-30T18:39:25.913Z,22.40
2023-01-30T18:41:54.002Z,22.40
2023-01-30T18:44:22.409Z,22.40
2023-01-30T18:46:50.942Z,22.30
2023-01-30T18:49:19.326Z,22.30
2023-01-30T18:51:47.672Z,22.30
2023-01-30T18:54:16.008Z,22.30
2023-01-30T18:56:44.429Z,22.30
2023-01-30T18:59:12.774Z,22.30
2023-01-30T19:01:41.691Z,22.30
2023-01-30T19:04:11.477Z,22.30
2023-01-30T19:06:42.512Z,22.20
2023-01-30T19:09:15.946Z,22.20
2023-01-30T19:11:44.510Z,22.30
2023-01-30T19:14:13.161Z,22.30
2023-01-30T19:16:41.209Z,22.30
2023-01-30T19:19:10.495Z,22.30
2023-01-30T19:21:39.455Z,22.20
2023-01-30T19:24:12.039Z,22.30
2023-01-30T19:26:40.699Z,22.20
2023-01-30T19:29:09.445Z,22.20
2023-01-30T19:31:38.158Z,22.40
2023-01-30T19:34:06.545Z,22.90
2023-01-30T19:36:36.641Z,23.30
2023-01-30T19:39:07.707Z,23.70
2023-01-30T19:41:37.076Z,24.00
2023-01-30T19:44:08.591Z,24.20
2023-01-30T19:46:37.202Z,24.40
2023-01-30T19:49:05.963Z,24.60
2023-01-30T19:51:35.614Z,24.70
2023-01-30T19:54:07.324Z,24.80
2023-01-30T19:56:36.356Z,24.90
2023-01-30T19:59:04.917Z,25.00
2023-01-30T20:01:33.504Z,25.00
2023-01-30T20:04:02.066Z,25.10
2023-01-30T20:06:32.651Z,25.20
2023-01-30T20:09:03.765Z,25.20
2023-01-30T20:11:33.673Z,25.30
2023-01-30T20:14:05.256Z,25.40
2023-01-30T20:16:35.247Z,25.40
2023-01-30T20:19:09.874Z,25.50
2023-01-30T20:21:38.160Z,25.50
2023-01-30T20:24:06.633Z,25.60
2023-01-30T20:26:36.157Z,25.60
2023-01-30T20:29:05.331Z,25.70
2023-01-30T20:31:33.914Z,25.70
2023-01-30T20:34:04.886Z,25.70
2023-01-30T20:36:33.909Z,25.70
2023-01-30T20:39:03.254Z,25.80
2023-01-30T20:41:31.872Z,25.80
2023-01-30T20:44:01.232Z,25.90
2023-01-30T20:46:32.063Z,25.90
2023-01-30T20:49:00.685Z,25.90
2023-01-30T20:51:29.868Z,26.00
2023-01-30T20:54:00.651Z,26.00
2023-01-30T20:56:33.452Z,26.00
2023-01-30T20:59:04.767Z,26.00
2023-01-30T21:01:34.061Z,26.10
2023-01-30T21:04:07.626Z,26.10
2023-01-30T21:06:43.519Z,26.10
2023-01-30T21:09:22.685Z,26.20
2023-01-30T21:11:52.272Z,26.20
2023-01-30T21:14:20.643Z,26.20
2023-01-30T21:16:53.417Z,26.20
2023-01-30T21:19:22.241Z,26.20
2023-01-30T21:21:55.197Z,26.30
2023-01-30T21:24:29.649Z,26.30
2023-01-30T21:26:58.241Z,26.30
2023-01-30T21:29:27.012Z,25.70
2023-01-30T21:31:56.864Z,25.20
2023-01-30T21:34:25.415Z,24.90
2023-01-30T21:36:53.739Z,24.60
2023-01-30T21:39:22.145Z,24.40
2023-01-30T21:41:50.384Z,24.20
2023-01-30T21:44:20.745Z,24.10
2023-01-30T21:46:49.667Z,24.00
2023-01-30T21:49:18.950Z,23.90
2023-01-30T21:51:49.446Z,23.80
2023-01-30T21:54:19.225Z,23.60
2023-01-30T21:56:48.089Z,23.50
2023-01-30T21:59:16.988Z,23.40
2023-01-30T22:01:45.514Z,23.40
2023-01-30T22:04:15.335Z,23.40
2023-01-30T22:06:44.145Z,23.40
2023-01-30T22:09:16.596Z,23.30
2023-01-30T22:11:46.134Z,23.30
2023-01-30T22:14:14.788Z,23.30
2023-01-30T22:16:43.207Z,23.20
2023-01-30T22:19:11.659Z,23.20
2023-01-30T22:21:40.851Z,23.20
2023-01-30T22:24:10.043Z,23.10
2023-01-30T22:26:39.561Z,23.10
2023-01-30T22:29:08.083Z,23.10
2023-01-30T22:31:38.557Z,23.10
2023-01-30T22:34:08.033Z,23.00
2023-01-30T22:36:36.389Z,23.00
2023-01-30T22:39:05.915Z,22.90
2023-01-30T22:41:36.358Z,22.90
2023-01-30T22:44:09.048Z,22.90
2023-01-30T22:46:40.109Z,22.90
2023-01-30T22:49:12.003Z,22.80
2023-01-30T22:51:42.416Z,22.80
2023-01-30T22:54:11.322Z,22.70
2023-01-30T22:56:48.615Z,22.70
2023-01-30T22:59:17.088Z,22.70
2023-01-30T23:01:50.011Z,22.70
2023-01-30T23:04:23.915Z,22.70
2023-01-30T23:06:53.158Z,22.60
2023-01-30T23:09:23.715Z,22.60
2023-01-30T23:11:56.413Z,22.70
2023-01-30T23:14:24.940Z,22.60
2023-01-30T23:16:53.316Z,22.60
2023-01-30T23:19:21.804Z,22.60
2023-01-30T23:21:50.141Z,22.60
2023-01-30T23:24:21.164Z,22.60
2023-01-30T23:26:52.446Z,22.60
2023-01-30T23:29:21.540Z,22.60
2023-01-30T23:31:49.847Z,22.60
2023-01-30T23:34:19.949Z,22.60
2023-01-30T23:36:48.436Z,22.60
2023-01-30T23:39:16.711Z,22.60
2023-01-30T23:41:45.186Z,22.50
2023-01-30T23:44:13.421Z,22.60
2023-01-30T23:46:42.804Z,22.50
2023-01-30T23:49:14.285Z,22.50
2023-01-30T23:51:45.406Z,22.50
2023-01-30T23:54:14.800Z,22.50
2023-01-30T23:56:45.053Z,22.60
2023-01-30T23:59:13.552Z,22.60
